Data for 04/12/2010

Time Sea-Level Adjusted Pressure Absolute Pressure Temperature Relative Humidity Dew Point   
(mb) (inHg) (mb) (inHg) (C) (F) (%) (C) (F)
00:05 1015 29.97 844 24.92 3.4 38.1 40 -8.9 16.1
00:10 1015 29.97 844 24.92 3.4 38 40 -9 15.8
00:15 1015 29.97 844 24.92 3.4 38 41 -8.7 16.4
00:20 1015 29.97 844 24.92 3.4 38.1 41 -8.6 16.5
00:25 1015 29.97 844 24.92 3.4 38.1 41 -8.6 16.4
00:30 1015 29.97 844 24.92 3.4 38.2 41 -8.5 16.7
00:35 1015 29.97 844 24.92 3.4 38.2 41 -8.6 16.6
00:40 1015 29.97 844 24.92 3.4 38.2 42 -8.4 16.8
00:45 1015 29.97 844 24.92 3.3 38 42 -8.3 17.1
00:50 1015 29.97 844 24.92 3.4 38.2 42 -8.3 17.1
00:55 1015 29.97 844 24.92 3.5 38.2 42 -8.3 17
01:00 1015 29.97 844 24.92 3.5 38.3 42 -8.2 17.3
01:05 1015 29.97 844 24.92 3.6 38.5 42 -8.1 17.3
01:10 1015 29.97 844 24.92 3.8 38.8 42 -7.9 17.8
01:15 1015 29.97 844 24.92 3.9 39 43 -7.7 18.1
01:20 1015 29.97 844 24.92 3.9 38.9 43 -7.6 18.4
01:25 1015 29.97 844 24.92 3.8 38.9 44 -7.4 18.6
01:30 1015 29.97 844 24.92 3.6 38.5 45 -7.3 18.9
01:35 1015 29.97 844 24.92 3.2 37.7 46 -7.4 18.7
01:40 1015 29.97 844 24.92 3 37.5 46 -7.4 18.7
01:45 1015 29.97 844 24.92 3 37.5 46 -7.4 18.7
01:50 1014 29.94 844 24.92 3.1 37.5 46 -7.5 18.6
01:55 1014 29.94 844 24.92 3 37.5 47 -7.3 18.9
02:00 1014 29.94 844 24.92 3 37.4 46 -7.4 18.7
02:05 1014 29.94 844 24.92 3 37.4 46 -7.6 18.4
02:10 1014 29.94 844 24.92 3 37.4 46 -7.4 18.7
02:15 1014 29.94 844 24.92 3 37.4 46 -7.4 18.7
02:20 1014 29.94 844 24.92 3 37.4 45 -7.8 18
02:25 1014 29.94 843 24.89 2.9 37.3 44 -8 17.6
02:30 1014 29.94 843 24.89 2.9 37.1 43 -8.5 16.7
02:35 1014 29.94 843 24.89 2.7 36.9 44 -8.4 16.8
02:40 1014 29.94 843 24.89 2.5 36.5 45 -8.4 16.9
02:45 1014 29.94 843 24.89 2.4 36.2 45 -8.3 17.1
02:50 1014 29.94 843 24.89 2.2 35.9 46 -8.4 16.9
02:55 1014 29.94 843 24.89 2.1 35.7 46 -8.4 16.9
03:00 1014 29.94 843 24.89 2 35.6 46 -8.4 16.9
03:05 1014 29.94 843 24.89 1.9 35.5 45 -8.7 16.3
03:10 1014 29.94 843 24.89 1.9 35.5 45 -8.8 16.2
03:15 1014 29.94 843 24.89 1.8 35.2 45 -8.9 15.9
03:20 1014 29.94 843 24.89 1.7 35 46 -8.8 16.2
03:25 1014 29.94 843 24.89 1.6 34.9 46 -8.9 16
03:30 1014 29.94 843 24.89 1.5 34.8 46 -9 15.8
03:35 1014 29.94 843 24.89 1.5 34.6 46 -9 15.9
03:40 1013 29.91 843 24.89 1.3 34.4 46 -9.1 15.6
03:45 1014 29.94 843 24.89 1.2 34.1 46 -9.2 15.5
03:50 1014 29.94 843 24.89 1.1 33.9 46 -9.3 15.3
03:55 1013 29.91 843 24.89 0.9 33.7 46 -9.3 15.2
04:00 1013 29.91 843 24.89 0.8 33.4 47 -9.3 15.2
04:05 1013 29.91 843 24.89 0.7 33.3 47 -9.5 15
04:10 1013 29.91 843 24.89 0.7 33.3 46 -9.5 14.9
04:15 1013 29.91 843 24.89 0.7 33.2 47 -9.4 15
04:20 1013 29.91 843 24.89 0.6 33.2 47 -9.5 15
04:25 1013 29.91 843 24.89 0.6 33.2 46 -9.7 14.5
04:30 1013 29.91 843 24.89 0.6 33.2 46 -9.7 14.6
04:35 1013 29.91 843 24.89 0.6 33 47 -9.6 14.7
04:40 1013 29.91 843 24.89 0.4 32.8 46 -9.9 14.3
04:45 1013 29.91 843 24.89 0.5 32.8 46 -9.9 14.2
04:50 1013 29.91 842 24.86 0.4 32.7 46 -9.9 14.2
04:55 1013 29.91 842 24.86 0.3 32.6 46 -9.9 14.1
05:00 1013 29.91 842 24.86 0.3 32.5 46 -10.1 13.8
05:05 1013 29.91 842 24.86 0.2 32.4 46 -10 14.1
05:10 1013 29.91 842 24.86 0.2 32.3 46 -10.1 13.9
05:15 1013 29.91 842 24.86 0.1 32.2 46 -10.2 13.6
05:20 1013 29.91 842 24.86 -0 32 46 -10.2 13.6
05:25 1013 29.91 842 24.86 -0.1 31.8 47 -10.1 13.9
05:30 1013 29.91 842 24.86 -0.1 31.7 47 -10.2 13.7
05:35 1013 29.91 843 24.89 -0.2 31.6 48 -10 14
05:40 1013 29.91 842 24.86 -0.4 31.3 48 -10.1 13.9
05:45 1013 29.91 842 24.86 -0.4 31.3 48 -10.1 13.8
05:50 1013 29.91 842 24.86 -0.5 31.2 48 -10.3 13.5
05:55 1013 29.91 842 24.86 -0.5 31 48 -10.2 13.6
06:00 1013 29.91 842 24.86 -0.6 31 48 -10.3 13.4
06:05 1013 29.91 842 24.86 -0.5 31.1 47 -10.4 13.2
06:10 1013 29.91 842 24.86 -0.6 31 47 -10.5 13.1
06:15 1013 29.91 842 24.86 -0.7 30.8 48 -10.4 13.2
06:20 1013 29.91 842 24.86 -0.7 30.8 47 -10.6 12.9
06:25 1013 29.91 842 24.86 -0.7 30.7 48 -10.4 13.2
06:30 1013 29.91 842 24.86 -0.7 30.7 48 -10.5 13.1
06:35 1013 29.91 842 24.86 -0.7 30.7 47 -10.6 12.9
06:40 1013 29.91 842 24.86 -0.8 30.6 48 -10.4 13.2
06:45 1013 29.91 842 24.86 -0.9 30.3 49 -10.3 13.4
06:50 1013 29.91 842 24.86 -0.9 30.3 49 -10.5 13.1
06:55 1013 29.91 842 24.86 -0.9 30.3 49 -10.4 13.3
07:00 1013 29.91 842 24.86 -0.9 30.4 49 -10.3 13.4
07:05 1013 29.91 842 24.86 -1 30.2 49 -10.3 13.4
07:10 1013 29.91 842 24.86 -1 30.3 49 -10.5 13.2
07:15 1013 29.91 842 24.86 -0.9 30.4 49 -10.3 13.5
07:20 1013 29.91 842 24.86 -0.8 30.5 48 -10.5 13.2
07:25 1013 29.91 842 24.86 -0.9 30.3 49 -10.4 13.4
07:30 1013 29.91 842 24.86 -0.9 30.3 49 -10.5 13.2
07:35 1013 29.91 842 24.86 -1 30.3 49 -10.3 13.5
07:40 1013 29.91 842 24.86 -0.9 30.3 49 -10.3 13.4
07:45 1013 29.91 842 24.86 -1 30.3 50 -10.2 13.6
07:50 1013 29.91 842 24.86 -1 30.2 49 -10.3 13.5
07:55 1013 29.91 842 24.86 -0.8 30.5 49 -10.3 13.4
08:00 1013 29.91 842 24.86 -0.7 30.8 48 -10.3 13.5
08:05 1013 29.91 842 24.86 -0.6 31 48 -10.3 13.5
08:10 1013 29.91 842 24.86 -0.5 31.1 48 -10.2 13.6
08:15 1013 29.91 842 24.86 -0.5 31.2 48 -10.1 13.8
08:20 1013 29.91 842 24.86 -0.4 31.4 48 -10.1 13.8
08:25 1013 29.91 842 24.86 -0.1 31.7 47 -10.1 13.8
08:30 1013 29.91 842 24.86 -0.1 31.9 47 -10 13.9
08:35 1013 29.91 842 24.86 0.1 32.2 47 -10 14.1
08:40 1013 29.91 842 24.86 0.3 32.6 46 -9.9 14.2
08:45 1013 29.91 842 24.86 0.3 32.6 46 -9.9 14.2
08:50 1013 29.91 842 24.86 0.4 32.7 46 -9.9 14.1
08:55 1013 29.91 842 24.86 0.5 32.9 46 -9.8 14.3
09:00 1013 29.91 842 24.86 0.8 33.4 45 -9.8 14.3
09:05 1013 29.91 842 24.86 0.8 33.5 45 -9.7 14.5
09:10 1013 29.91 842 24.86 1 33.9 44 -9.8 14.4
09:15 1013 29.91 842 24.86 1.3 34.4 44 -9.7 14.6
09:20 1013 29.91 842 24.86 1.2 34.2 45 -9.6 14.8
09:25 1013 29.91 842 24.86 1.5 34.7 44 -9.5 14.9
09:30 1013 29.91 842 24.86 1.9 35.5 43 -9.5 14.9
09:35 1013 29.91 842 24.86 2.1 35.8 42 -9.4 15.1
09:40 1013 29.91 842 24.86 2.5 36.5 41 -9.4 15.1
09:45 1013 29.91 842 24.86 2.3 36.2 43 -9.1 15.6
09:50 1013 29.91 842 24.86 2.4 36.3 41 -9.5 14.9
09:55 1013 29.91 842 24.86 2.7 36.9 41 -9.2 15.4
10:00 1013 29.91 842 24.86 3 37.5 41 -9.1 15.7
10:05 1013 29.91 842 24.86 3.2 37.8 40 -9 15.8
10:10 1013 29.91 842 24.86 3.1 37.6 40 -9.2 15.5
10:15 1013 29.91 842 24.86 3.3 37.9 40 -9.1 15.6
10:20 1013 29.91 842 24.86 3 37.4 41 -9 15.9
10:25 1013 29.91 842 24.86 2.9 37.3 42 -8.9 16
10:30 1013 29.91 842 24.86 3.4 38 40 -9.1 15.6
10:35 1013 29.91 842 24.86 3.8 38.8 39 -9 15.8
10:40 1012 29.88 842 24.86 4 39.2 40 -8.5 16.6
10:45 1012 29.88 841 24.83 4.3 39.8 38 -8.7 16.3
10:50 1012 29.88 842 24.86 4.2 39.5 39 -8.7 16.4
10:55 1012 29.88 842 24.86 4.2 39.6 38 -8.9 16.1
11:00 1012 29.88 841 24.83 4.8 40.6 37 -8.8 16.2
11:05 1012 29.88 841 24.83 4.8 40.7 37 -8.6 16.5
11:10 1012 29.88 841 24.83 5 41 38 -8.1 17.4
11:15 1012 29.88 841 24.83 5 41 37 -8.4 16.9
11:20 1012 29.88 841 24.83 5.1 41.2 38 -8.1 17.3
11:25 1012 29.88 841 24.83 5.2 41.3 37 -8.3 17.1
11:30 1012 29.88 841 24.83 5.1 41.2 37 -8.5 16.6
11:35 1012 29.88 841 24.83 5.6 42.1 36 -8.3 17.1
11:40 1012 29.88 841 24.83 5.6 42 36 -8.4 16.9
11:45 1012 29.88 841 24.83 5.6 42.1 36 -8.2 17.2
11:50 1012 29.88 841 24.83 5.4 41.7 37 -8.2 17.2
11:55 1012 29.88 841 24.83 5.5 41.8 36 -8.3 17.1
12:00 1012 29.88 841 24.83 5.8 42.5 36 -8 17.7
12:05 1012 29.88 841 24.83 6.1 43 36 -7.9 17.7
12:10 1011 29.85 841 24.83 6.1 43 36 -7.8 18
12:15 1011 29.85 841 24.83 6.4 43.5 35 -7.9 17.7
12:20 1011 29.85 840 24.81 6.7 44 34 -8.1 17.5
12:25 1011 29.85 840 24.81 6.8 44.3 35 -7.7 18.1
12:30 1011 29.85 840 24.81 7 44.5 34 -7.8 17.9
12:35 1011 29.85 840 24.81 7.2 45 35 -7.3 18.9
12:40 1011 29.85 840 24.81 7.6 45.6 34 -7.3 18.9
12:45 1011 29.85 840 24.81 7.5 45.6 34 -7.5 18.5
12:50 1011 29.85 840 24.81 7.4 45.4 34 -7.5 18.5
12:55 1011 29.85 840 24.81 7.5 45.4 34 -7.4 18.6
13:00 1011 29.85 840 24.81 8.1 46.5 33 -7.3 18.8
13:05 1010 29.83 840 24.81 8.3 46.9 34 -6.8 19.7
13:10 1010 29.83 840 24.81 8.2 46.7 33 -7.1 19.3
13:15 1010 29.83 840 24.81 8 46.3 34 -6.9 19.6
13:20 1010 29.83 840 24.81 8.7 47.7 32 -7.1 19.2
13:25 1010 29.83 840 24.81 8.6 47.5 33 -6.8 19.8
13:30 1010 29.83 839 24.78 8.7 47.6 32 -6.9 19.6
13:35 1010 29.83 839 24.78 8.7 47.6 33 -6.7 20
13:40 1010 29.83 839 24.78 8.9 48 32 -7 19.4
13:45 1010 29.83 839 24.78 8.8 47.9 32 -6.8 19.7
13:50 1010 29.83 839 24.78 9.2 48.6 32 -6.7 20
13:55 1010 29.83 839 24.78 9 48.3 32 -6.8 19.7
14:00 1010 29.83 839 24.78 9.1 48.3 33 -6.5 20.4
14:05 1010 29.83 839 24.78 9.2 48.5 33 -6.1 21.1
14:10 1009 29.8 839 24.78 9.2 48.5 34 -6 21.1
14:15 1009 29.8 839 24.78 9.3 48.7 34 -5.9 21.4
14:20 1009 29.8 839 24.78 8.8 47.9 34 -6.1 21
14:25 1009 29.8 838 24.75 9 48.3 33 -6.3 20.7
14:30 1009 29.8 838 24.75 9 48.2 34 -5.9 21.4
14:35 1009 29.8 838 24.75 9.1 48.3 34 -5.9 21.3
14:40 1009 29.8 838 24.75 9.3 48.7 34 -5.6 21.9
14:45 1009 29.8 838 24.75 9.5 49.2 34 -5.6 21.9
14:50 1009 29.8 838 24.75 9.5 49.2 33 -5.8 21.6
14:55 1009 29.8 838 24.75 9.4 49 34 -5.7 21.7
15:00 1009 29.8 838 24.75 9.7 49.4 33 -5.8 21.6
15:05 1009 29.8 838 24.75 9.7 49.4 34 -5.5 22
15:10 1009 29.8 838 24.75 9.7 49.5 35 -5.1 22.8
15:15 1009 29.8 838 24.75 9.8 49.6 34 -5.5 22.2
15:20 1009 29.8 838 24.75 9.8 49.7 34 -5.4 22.3
15:25 1009 29.8 838 24.75 9.8 49.6 34 -5.5 22.2
15:30 1009 29.8 838 24.75 9.6 49.2 35 -5.1 22.9
15:35 1009 29.8 838 24.75 9.7 49.4 35 -5.2 22.7
15:40 1009 29.8 838 24.75 9.8 49.6 34 -5.1 22.7
15:45 1008 29.77 838 24.75 9.8 49.7 35 -4.8 23.4
15:50 1008 29.77 838 24.75 9.7 49.5 36 -4.7 23.6
15:55 1008 29.77 837 24.72 9.6 49.4 35 -4.9 23.2
16:00 1008 29.77 838 24.75 10 50 35 -4.9 23.2
16:05 1008 29.77 838 24.75 9.5 49.2 37 -4.5 23.8
16:10 1008 29.77 838 24.75 9.2 48.6 37 -4.6 23.7
16:15 1008 29.77 838 24.75 9.6 49.3 36 -4.9 23.2
16:20 1008 29.77 837 24.72 9.8 49.7 36 -4.6 23.6
16:25 1008 29.77 837 24.72 9.5 49.1 37 -4.4 24.1
16:30 1008 29.77 837 24.72 9.7 49.4 36 -4.5 23.9
16:35 1008 29.77 837 24.72 9.8 49.6 36 -4.5 24
16:40 1008 29.77 837 24.72 9.6 49.3 37 -4.4 24
16:45 1008 29.77 837 24.72 9.6 49.3 37 -4.4 24.1
16:50 1008 29.77 837 24.72 9.7 49.5 36 -4.5 23.9
16:55 1008 29.77 837 24.72 9.7 49.4 37 -4.4 24
17:00 1008 29.77 837 24.72 9.7 49.5 36 -4.5 23.8
17:05 1008 29.77 837 24.72 9.7 49.4 37 -4.4 24
17:10 1008 29.77 837 24.72 9.5 49.1 38 -4.1 24.6
17:15 1008 29.77 837 24.72 9.4 49 38 -4.2 24.5
17:20 1008 29.77 837 24.72 9.5 49.1 39 -3.8 25.1
17:25 1008 29.77 837 24.72 9.6 49.2 38 -3.9 25
17:30 1008 29.77 837 24.72 9.5 49.1 39 -3.9 25
17:35 1008 29.77 837 24.72 9.3 48.8 39 -3.9 25
17:40 1008 29.77 837 24.72 8.9 48 41 -3.7 25.3
17:45 1008 29.77 837 24.72 8.9 47.9 41 -3.8 25.2
17:50 1008 29.77 837 24.72 9 48.1 41 -3.6 25.5
17:55 1008 29.77 837 24.72 9.1 48.3 41 -3.5 25.7
18:00 1008 29.77 837 24.72 9.2 48.6 41 -3.4 25.9
18:05 1008 29.77 837 24.72 9.2 48.6 41 -3.4 25.9
18:10 1008 29.77 837 24.72 9.2 48.6 41 -3.2 26.3
18:15 1008 29.77 837 24.72 9.1 48.4 42 -3.1 26.5
18:20 1008 29.77 837 24.72 8.8 47.9 43 -3 26.6
18:25 1008 29.77 837 24.72 8.8 47.8 43 -3 26.6
18:30 1008 29.77 837 24.72 8.7 47.6 44 -3 26.7
18:35 1008 29.77 837 24.72 8.6 47.5 44 -2.9 26.8
18:40 1008 29.77 837 24.72 8.5 47.2 45 -2.9 26.8
18:45 1008 29.77 837 24.72 8.5 47.3 44 -3.1 26.5
18:50 1008 29.77 837 24.72 8.6 47.5 43 -3.1 26.5
18:55 1008 29.77 837 24.72 8.7 47.6 43 -3.1 26.5
19:00 1008 29.77 837 24.72 8.5 47.3 43 -3.4 25.8
19:05 1008 29.77 837 24.72 8.3 47 44 -3.1 26.4
19:10 1008 29.77 837 24.72 8.1 46.7 44 -3.2 26.2
19:15 1008 29.77 838 24.75 7.9 46.2 45 -3.2 26.2
19:20 1008 29.77 838 24.75 7.6 45.7 47 -3 26.7
19:25 1009 29.8 838 24.75 7.4 45.3 49 -2.5 27.5
19:30 1009 29.8 838 24.75 7.2 45 52 -1.9 28.5
19:35 1009 29.8 838 24.75 6.9 44.5 54 -1.6 29.1
19:40 1009 29.8 838 24.75 6.6 44 56 -1.5 29.4
19:45 1009 29.8 838 24.75 6.4 43.6 57 -1.4 29.5
19:50 1009 29.8 838 24.75 6.3 43.3 58 -1.4 29.5
19:55 1009 29.8 838 24.75 6.1 43 59 -1.3 29.6
20:00 1009 29.8 838 24.75 6 42.7 60 -1.3 29.7
20:05 1009 29.8 838 24.75 5.8 42.5 60 -1.2 29.8
20:10 1009 29.8 838 24.75 5.7 42.2 61 -1.3 29.7
20:15 1009 29.8 838 24.75 5.5 41.9 62 -1.2 29.8
20:20 1008 29.77 838 24.75 5.3 41.5 63 -1.3 29.7
20:25 1008 29.77 838 24.75 5.1 41.2 63 -1.3 29.7
20:30 1008 29.77 838 24.75 4.9 40.8 65 -1.2 29.9
20:35 1008 29.77 837 24.72 4.6 40.3 66 -1.2 29.8
20:40 1008 29.77 837 24.72 4.4 40 66 -1.3 29.7
20:45 1008 29.77 838 24.75 4.3 39.7 67 -1.3 29.7
20:50 1008 29.77 838 24.75 4.2 39.5 68 -1.2 29.8
20:55 1008 29.77 838 24.75 4 39.2 68 -1.3 29.7
21:00 1008 29.77 838 24.75 3.9 38.9 69 -1.3 29.6
21:05 1008 29.77 838 24.75 3.8 38.9 69 -1.3 29.7
21:10 1009 29.8 838 24.75 3.7 38.7 70 -1.3 29.7
21:15 1009 29.8 838 24.75 3.6 38.5 71 -1.2 29.8
21:20 1009 29.8 838 24.75 3.5 38.3 71 -1.2 29.8
21:25 1009 29.8 838 24.75 3.5 38.2 71 -1.3 29.7
21:30 1009 29.8 838 24.75 3.4 38.1 71 -1.3 29.6
21:35 1009 29.8 838 24.75 3.4 38 72 -1.3 29.7
21:40 1009 29.8 838 24.75 3.3 37.9 72 -1.3 29.7
21:45 1009 29.8 838 24.75 3.2 37.7 73 -1.3 29.7
21:50 1009 29.8 838 24.75 3.1 37.6 73 -1.3 29.6
21:55 1009 29.8 838 24.75 3.1 37.6 73 -1.3 29.7
22:00 1009 29.8 839 24.78 3.1 37.6 73 -1.3 29.6
22:05 1009 29.8 838 24.75 3.1 37.5 73 -1.3 29.7
22:10 1009 29.8 838 24.75 3 37.5 73 -1.4 29.6
22:15 1009 29.8 838 24.75 3.1 37.5 73 -1.3 29.6
22:20 1009 29.8 838 24.75 3 37.5 73 -1.2 29.8
22:25 1009 29.8 838 24.75 3 37.3 74 -1.3 29.7
22:30 1009 29.8 838 24.75 2.9 37.3 74 -1.3 29.6
22:35 1009 29.8 838 24.75 3 37.5 74 -1.2 29.9
22:40 1009 29.8 838 24.75 3 37.4 75 -1 30.2
22:45 1009 29.8 838 24.75 2.9 37.3 76 -0.9 30.4
22:50 1008 29.77 838 24.75 2.8 37.1 76 -1 30.3
22:55 1008 29.77 838 24.75 2.9 37.3 76 -0.8 30.6
23:00 1008 29.77 838 24.75 2.7 36.9 78 -0.6 30.8
23:05 1009 29.8 838 24.75 2.5 36.5 79 -0.7 30.7
23:10 1008 29.77 838 24.75 2.5 36.5 78 -0.9 30.3
23:15 1008 29.77 838 24.75 2.5 36.4 78 -0.9 30.4
23:20 1009 29.8 838 24.75 2.3 36.1 79 -0.9 30.3
23:25 1008 29.77 838 24.75 2.1 35.9 80 -1 30.2
23:30 1009 29.8 838 24.75 2.1 35.7 80 -1 30.2
23:35 1009 29.8 838 24.75 2 35.6 81 -1 30.2
23:40 1009 29.8 838 24.75 1.9 35.4 82 -0.9 30.4
23:45 1009 29.8 838 24.75 1.9 35.3 82 -0.8 30.5
23:50 1009 29.8 838 24.75 1.8 35.2 83 -0.8 30.5
23:55 1009 29.8 838 24.75 1.8 35.2 83 -0.8 30.5
24:00 1009 29.8 838 24.75 1.8 35.2 84 -0.7 30.7